Haramachi Maru — JBML — position and weather

sailwx.info

Track history (hours):
 
Tides and Currents Weather Stations Pressure Air Temp Water Temp Dewpoint Dewpoint Depression Visibility Wind Speed Wind Dir Waves Ship Positions

Haramachi Maru

Last reported at 2016-May-04 11:32 UTC. Time now 2016-May-04 11:40 UTC.
Position S 32°53' E 151°46'.

Length 239.8 m; beam 43 m.

Type: Cargo ship. MMSI: 431106000.

Date/timePositionNaut miles runAvg speedWind from/ knotsBaromVisibWave heightAir tempDewpointWater temp
2016-May-04 11:32S 32°53' E 151°46'1 1.4
2016-May-04 10:33S 32°55' E 151°46'8 7.9
2016-May-04 09:33S 32°60' E 151°53'9 8.8
2016-May-04 08:33S 33°06' E 152°01'2 2.1
2016-May-04 07:33S 33°06' E 152°04'1 1.0
2016-May-04 06:33S 33°05' E 152°04'0 0.2
2016-May-04 05:33S 33°05' E 152°03'1 0.7
2016-May-04 04:33S 33°05' E 152°03'2 1.5
2016-May-04 03:33S 33°03' E 152°02'7 7.0
2016-May-04 02:33S 32°57' E 152°01'1312.9
2016-May-04 01:33S 32°54' E 152°16'1313.4
2016-May-04 00:33S 32°46' E 152°29'1312.6
2016-May-03 23:33S 32°35' E 152°37'27114.2
2016-May-03 04:33S 28°11' E 153°44'1514.7
2016-May-03 03:33S 27°56' E 153°43'1414.3
2016-May-03 02:33S 27°42' E 153°43'1514.8
2016-May-03 01:33S 27°27' E 153°43'1515.2
2016-May-03 00:33S 27°12' E 153°43'1514.8
2016-May-02 23:33S 26°57' E 153°43'  
Track history (hours):
 
Tides and Currents Weather Stations Pressure Air Temp Water Temp Dewpoint Dewpoint Depression Visibility Wind Speed Wind Dir Waves Ship Positions

Haramachi Maru

Last reported at 2016-May-04 11:32 UTC. Time now 2016-May-04 11:40 UTC.
Position S 32°53' E 151°46'.

Length 239.8 m; beam 43 m.

Type: Cargo ship. MMSI: 431106000.

Date/timePositionNaut miles runAvg speedWind from/ knotsBaromVisibWave heightAir tempDewpointWater temp
2016-May-04 11:32S 32°53' E 151°46'1 1.4
2016-May-04 10:33S 32°55' E 151°46'8 7.9
2016-May-04 09:33S 32°60' E 151°53'9 8.8
2016-May-04 08:33S 33°06' E 152°01'2 2.1
2016-May-04 07:33S 33°06' E 152°04'1 1.0
2016-May-04 06:33S 33°05' E 152°04'0 0.2
2016-May-04 05:33S 33°05' E 152°03'1 0.7
2016-May-04 04:33S 33°05' E 152°03'2 1.5
2016-May-04 03:33S 33°03' E 152°02'7 7.0
2016-May-04 02:33S 32°57' E 152°01'1312.9
2016-May-04 01:33S 32°54' E 152°16'1313.4
2016-May-04 00:33S 32°46' E 152°29'1312.6
2016-May-03 23:33S 32°35' E 152°37'27114.2
2016-May-03 04:33S 28°11' E 153°44'1514.7
2016-May-03 03:33S 27°56' E 153°43'1414.3
2016-May-03 02:33S 27°42' E 153°43'1514.8
2016-May-03 01:33S 27°27' E 153°43'1515.2
2016-May-03 00:33S 27°12' E 153°43'1514.8
2016-May-02 23:33S 26°57' E 153°43'  

Dump ship's entire track history